Time;durP1;ratioP1;P1;durP2;ratioP2;P2;SDS_P1;SDS_P2;PMS_P1;PMS_P2;Temp;Humidity;BMP_temperature;BMP_pressure;BME280_temperature;BME280_humidity;BME280_pressure;Samples;Min_cycle;Max_cycle;Signal;HPM_P1;HPM_P2
2022/03/25 00:01:33;;;;;;;12.95;10.65;;;;;;;21.44;32.76;101998.88;5011164;28;20054;-81
2022/03/25 00:04:01;;;;;;;11.68;10.48;;;;;;;21.43;32.71;101980.97;5011896;28;20042;-81
2022/03/25 00:06:28;;;;;;;11.55;10.32;;;;;;;21.42;32.80;101981.94;5026551;28;20138;-80
2022/03/25 00:08:55;;;;;;;13.93;11.30;;;;;;;21.42;32.69;101981.94;5011065;28;20046;-80
2022/03/25 00:11:23;;;;;;;12.50;11.20;;;;;;;21.41;32.76;101978.41;4992917;28;20076;-80
2022/03/25 00:13:50;;;;;;;13.95;11.65;;;;;;;21.41;32.79;101985.63;4997476;28;20050;-80
2022/03/25 00:16:17;;;;;;;12.07;10.70;;;;;;;21.41;32.69;101985.63;5015748;28;20045;-80
2022/03/25 00:18:45;;;;;;;12.57;10.50;;;;;;;21.40;32.70;101983.91;5014610;28;20046;-80
2022/03/25 00:21:12;;;;;;;12.23;10.77;;;;;;;21.39;32.81;101982.19;5013730;28;20046;-80
2022/03/25 00:23:40;;;;;;;13.23;11.23;;;;;;;21.39;32.74;101982.19;5029740;28;20050;-80
2022/03/25 00:26:07;;;;;;;13.63;10.63;;;;;;;21.39;32.69;101982.19;4997800;28;20042;-80
2022/03/25 00:28:36;;;;;;;10.50;9.43;;;;;;;21.39;32.75;101990.25;4996011;28;20050;-80
2022/03/25 00:31:08;;;;;;;13.23;10.10;;;;;;;21.39;32.64;101990.25;5014889;28;20057;-80
2022/03/25 00:33:37;;;;;;;10.82;9.63;;;;;;;21.37;32.59;101984.16;5029326;28;20050;-80
2022/03/25 00:36:09;;;;;;;12.20;10.90;;;;;;;21.37;32.63;101982.31;4996552;28;20505;-80
2022/03/25 00:38:36;;;;;;;11.07;9.98;;;;;;;21.37;32.66;101982.31;5014414;28;20042;-81
2022/03/25 00:41:06;;;;;;;12.18;10.07;;;;;;;21.36;32.64;101980.59;5013962;28;20064;-80
2022/03/25 00:43:35;;;;;;;12.52;10.68;;;;;;;21.36;32.57;101985.97;4995998;28;20061;-80
2022/03/25 00:46:02;;;;;;;10.93;9.70;;;;;;;21.37;32.49;101976.91;5028816;28;20057;-80
2022/03/25 00:48:32;;;;;;;11.88;10.52;;;;;;;21.36;32.74;101987.81;4995657;28;20058;-80
2022/03/25 00:51:00;;;;;;;11.45;9.68;;;;;;;21.36;32.45;101991.38;5029307;28;20393;-80
2022/03/25 00:53:30;;;;;;;10.85;9.77;;;;;;;21.36;32.52;101985.13;4998151;28;20156;-79
2022/03/25 00:55:57;;;;;;;10.82;9.73;;;;;;;21.36;32.45;101979.75;4998070;28;20054;-81
2022/03/25 00:58:25;;;;;;;11.95;10.68;;;;;;;21.36;32.52;101977.91;4997454;28;20061;-79
2022/03/25 01:00:52;;;;;;;11.63;10.25;;;;;;;;;;4995570;28;20054;-79
2022/03/25 01:03:20;;;;;;;10.88;9.70;;;;;;;21.36;32.35;101979.75;5014629;28;20038;-79
2022/03/25 01:05:49;;;;;;;14.35;10.23;;;;;;;21.33;32.44;101972.75;5014327;28;20049;-79
2022/03/25 01:08:17;;;;;;;12.20;10.48;;;;;;;21.35;32.40;101978.00;5014574;28;20046;-79
2022/03/25 01:10:44;;;;;;;10.90;9.13;;;;;;;21.34;32.28;101981.69;4995605;28;20540;-79
2022/03/25 01:13:11;;;;;;;10.75;9.30;;;;;;;21.33;32.49;101971.88;4997472;28;20052;-80
2022/03/25 01:15:39;;;;;;;11.93;10.35;;;;;;;21.33;32.32;101971.88;5029689;28;20057;-80
2022/03/25 01:18:09;;;;;;;12.32;9.80;;;;;;;21.33;32.42;101961.13;5029590;28;20520;-80
2022/03/25 01:20:37;;;;;;;13.10;10.13;;;;;;;21.33;32.36;101964.66;4996742;28;20061;-79
2022/03/25 01:23:06;;;;;;;11.23;9.52;;;;;;;21.32;32.39;101971.03;4995117;28;20054;-80
2022/03/25 01:25:35;;;;;;;12.18;10.95;;;;;;;21.32;32.52;101962.06;4996204;28;20046;-80
2022/03/25 01:28:02;;;;;;;12.10;9.98;;;;;;;21.32;32.38;101967.44;5013859;28;20053;-78
2022/03/25 01:30:31;;;;;;;11.98;10.18;;;;;;;21.31;32.39;101960.31;4995861;28;20078;-79
2022/03/25 01:32:59;;;;;;;12.23;10.65;;;;;;;21.31;32.41;101965.72;5013494;28;20042;-79
2022/03/25 01:35:26;;;;;;;10.68;9.52;;;;;;;21.30;32.40;101966.69;4995094;28;20509;-79
2022/03/25 01:37:54;;;;;;;10.73;9.60;;;;;;;21.30;32.35;101980.16;4997050;28;20050;-80
2022/03/25 01:40:22;;;;;;;10.57;9.48;;;;;;;21.29;32.29;101968.53;5029314;28;20054;-81
2022/03/25 01:42:49;;;;;;;11.40;10.05;;;;;;;21.31;32.25;101973.78;4994911;28;20060;-79
2022/03/25 01:45:30;;;;;;;12.63;9.88;;;;;;;21.29;32.13;101965.00;5028731;28;20046;-79
2022/03/25 01:47:59;;;;;;;10.18;8.55;;;;;;;21.28;32.21;101974.06;4995120;28;20413;-78
2022/03/25 01:50:27;;;;;;;10.80;9.70;;;;;;;21.28;32.19;101980.28;4995483;28;20046;-79
2022/03/25 01:52:55;;;;;;;11.05;9.85;;;;;;;21.28;32.10;101977.59;5013678;28;20065;-79
2022/03/25 01:55:26;;;;;;;11.88;10.55;;;;;;;21.28;32.03;101977.59;4997123;28;20054;-79
2022/03/25 01:57:58;;;;;;;11.25;10.05;;;;;;;21.28;32.07;101976.75;5014457;28;20045;-79
2022/03/25 02:00:29;;;;;;;12.30;9.93;;;;;;;21.27;32.11;101978.59;5027459;28;20062;-79
2022/03/25 02:02:57;;;;;;;10.88;9.77;;;;;;;21.27;32.12;101978.59;5013597;28;20064;-81
2022/03/25 02:05:25;;;;;;;11.15;10.02;;;;;;;21.27;32.14;101981.28;5013307;28;20042;-81
2022/03/25 02:07:52;;;;;;;14.20;10.10;;;;;;;21.27;32.13;101975.88;5013138;28;20065;-80
2022/03/25 02:10:20;;;;;;;10.82;9.43;;;;;;;21.26;32.20;101974.16;5013675;28;20053;-80
2022/03/25 02:12:49;;;;;;;10.10;9.02;;;;;;;21.28;32.08;101976.75;5013766;28;20045;-80
2022/03/25 02:15:17;;;;;;;10.70;9.55;;;;;;;21.27;31.98;101975.88;4996830;28;20057;-80
2022/03/25 02:17:44;;;;;;;10.75;9.40;;;;;;;21.27;31.97;101966.91;4994263;28;20050;-81
2022/03/25 02:20:12;;;;;;;11.98;9.15;;;;;;;21.27;31.92;101972.31;4994292;28;20053;-81
2022/03/25 02:22:40;;;;;;;10.50;8.50;;;;;;;21.26;32.04;101968.75;5029591;28;20050;-81
2022/03/25 02:25:13;;;;;;;10.15;9.15;;;;;;;21.26;31.79;101960.69;4996756;28;20056;-81
2022/03/25 02:27:43;;;;;;;10.10;8.57;;;;;;;21.27;31.91;101972.31;4995121;28;20085;-81
2022/03/25 02:30:12;;;;;;;10.18;9.10;;;;;;;21.26;31.87;101965.22;5012979;28;20053;-81
2022/03/25 02:32:42;;;;;;;10.40;8.95;;;;;;;21.26;31.78;101965.22;5012939;28;20405;-81
2022/03/25 02:35:11;;;;;;;10.07;8.77;;;;;;;21.24;32.08;101968.88;5012513;28;20042;-80
2022/03/25 02:37:38;;;;;;;9.70;8.07;;;;;;;21.25;32.01;101969.75;4995626;28;20050;-81
2022/03/25 02:40:07;;;;;;;9.80;8.77;;;;;;;21.24;31.63;101976.97;5011625;28;20046;-80
2022/03/25 02:42:36;;;;;;;10.65;9.13;;;;;;;21.24;31.73;101976.13;4995780;28;20049;-80
2022/03/25 02:45:08;;;;;;;10.85;8.77;;;;;;;21.24;31.81;101979.66;4994238;28;20054;-80
2022/03/25 02:47:36;;;;;;;10.48;8.93;;;;;;;21.24;31.69;101976.97;4994352;28;20053;-80
2022/03/25 02:50:04;;;;;;;9.10;8.20;;;;;;;21.23;31.71;101972.56;4978398;28;20046;-79
2022/03/25 02:52:32;;;;;;;8.15;7.18;;;;;;;21.23;31.74;101972.56;4994154;28;20504;-79
2022/03/25 02:54:59;;;;;;;8.82;7.93;;;;;;;21.24;31.71;101978.81;4995324;28;20469;-79
2022/03/25 02:57:27;;;;;;;9.55;7.95;;;;;;;21.22;31.72;101970.81;5012108;28;20042;-80
2022/03/25 02:59:54;;;;;;;8.30;7.45;;;;;;;21.22;31.68;101973.53;5012282;28;20049;-79
2022/03/25 03:02:22;;;;;;;9.13;7.45;;;;;;;21.23;31.74;101977.94;5011958;28;20053;-79
2022/03/25 03:04:49;;;;;;;8.32;6.93;;;;;;;21.22;31.44;101972.66;5026523;28;20045;-79
2022/03/25 03:07:17;;;;;;;8.52;7.18;;;;;;;21.22;31.45;101973.53;5012265;28;20042;-79
2022/03/25 03:09:44;;;;;;;8.57;7.13;;;;;;;21.22;31.62;101967.28;5011605;28;20045;-78
2022/03/25 03:12:13;;;;;;;9.45;7.68;;;;;;;21.22;31.62;101978.06;5012328;28;20385;-78
2022/03/25 03:14:40;;;;;;;7.88;6.85;;;;;;;21.21;31.50;101974.50;5012342;28;20064;-80
2022/03/25 03:17:10;;;;;;;7.20;6.40;;;;;;;21.21;31.47;101979.88;4994718;28;20054;-79
2022/03/25 03:19:37;;;;;;;7.90;6.85;;;;;;;21.21;31.48;101979.03;5012039;28;20049;-80
2022/03/25 03:22:05;;;;;;;9.02;7.30;;;;;;;21.21;31.45;101974.50;5011960;28;20049;-79
2022/03/25 03:24:32;;;;;;;8.95;6.65;;;;;;;21.21;31.58;101973.66;5011689;28;20041;-80
2022/03/25 03:26:59;;;;;;;8.48;7.28;;;;;;;21.21;31.39;101968.25;5011873;28;20046;-80
2022/03/25 03:29:27;;;;;;;8.02;7.00;;;;;;;21.20;31.37;101964.72;5012446;28;20050;-80
2022/03/25 03:31:54;;;;;;;8.32;7.43;;;;;;;21.20;31.49;101969.25;5011520;28;20397;-79
2022/03/25 03:34:22;;;;;;;8.57;6.72;;;;;;;21.20;31.41;101972.78;5011415;28;20057;-79
2022/03/25 03:36:50;;;;;;;7.18;6.50;;;;;;;21.21;31.50;101970.94;5010665;28;20050;-79
2022/03/25 03:39:17;;;;;;;8.13;6.75;;;;;;;21.20;31.35;101975.47;5011737;28;20050;-81
2022/03/25 03:41:44;;;;;;;8.32;7.18;;;;;;;21.19;31.43;101973.78;5011631;28;20057;-80
2022/03/25 03:44:12;;;;;;;7.03;6.32;;;;;;;21.19;31.28;101975.63;4994847;28;20058;-80
2022/03/25 03:46:39;;;;;;;8.95;7.20;;;;;;;21.19;31.30;101976.47;5011347;28;20056;-80
2022/03/25 03:49:06;;;;;;;7.20;6.47;;;;;;;21.18;31.23;101972.03;5012099;28;20485;-80
2022/03/25 03:51:34;;;;;;;8.90;7.22;;;;;;;21.18;31.19;101974.72;4993386;28;20050;-79
2022/03/25 03:54:01;;;;;;;7.63;6.85;;;;;;;21.18;31.10;101979.25;5011425;28;20404;-80
2022/03/25 03:56:28;;;;;;;8.40;6.53;;;;;;;21.17;31.21;101981.09;4993444;28;20042;-79
2022/03/25 03:58:56;;;;;;;7.65;6.55;;;;;;;21.17;31.31;101978.41;5011939;28;20046;-80
2022/03/25 04:01:23;;;;;;;8.60;6.78;;;;;;;21.18;31.27;101984.63;4993108;28;20057;-80
2022/03/25 04:03:51;;;;;;;8.05;6.50;;;;;;;21.16;31.10;101978.53;4994016;28;20050;-80
2022/03/25 04:06:19;;;;;;;8.07;6.90;;;;;;;21.17;31.20;101985.63;5011205;28;20050;-80
2022/03/25 04:08:46;;;;;;;8.57;6.80;;;;;;;21.16;31.06;101982.06;5010341;28;20041;-81
2022/03/25 04:11:14;;;;;;;7.22;6.28;;;;;;;21.15;31.17;101977.69;5010335;28;20050;-80
2022/03/25 04:13:43;;;;;;;7.15;6.30;;;;;;;21.15;31.16;101991.13;5010816;28;20361;-79
2022/03/25 04:16:10;;;;;;;7.75;6.20;;;;;;;21.15;31.08;101977.69;5011814;28;20473;-79
2022/03/25 04:18:38;;;;;;;7.05;6.35;;;;;;;21.15;31.03;101990.28;5011384;28;20053;-80
2022/03/25 04:21:06;;;;;;;8.45;6.25;;;;;;;21.14;31.04;101989.41;4993945;28;20054;-80
2022/03/25 04:23:33;;;;;;;7.85;6.93;;;;;;;21.14;30.99;101983.16;4993611;28;20057;-80
2022/03/25 04:26:02;;;;;;;6.53;5.85;;;;;;;21.14;30.91;101986.69;5011594;28;20400;-80
2022/03/25 04:28:29;;;;;;;8.02;6.43;;;;;;;21.14;30.89;101992.09;5011250;28;20073;-80
2022/03/25 04:30:57;;;;;;;8.18;6.40;;;;;;;21.14;30.91;101993.94;5025575;28;20050;-80
2022/03/25 04:33:24;;;;;;;7.53;5.93;;;;;;;21.13;30.98;101993.06;4994747;28;20050;-80
2022/03/25 04:35:52;;;;;;;7.40;6.28;;;;;;;21.13;31.10;101987.69;5010069;28;20050;-80
2022/03/25 04:38:19;;;;;;;6.40;5.55;;;;;;;21.13;30.78;101992.22;5010632;28;20053;-80
2022/03/25 04:40:46;;;;;;;7.00;6.25;;;;;;;21.13;30.65;101992.22;5010651;28;20073;-79
2022/03/25 04:43:14;;;;;;;7.03;6.38;;;;;;;21.12;30.74;101996.75;5010678;28;20046;-79
2022/03/25 04:45:42;;;;;;;7.50;6.47;;;;;;;21.12;30.74;101994.06;5010391;28;20061;-78
2022/03/25 04:48:10;;;;;;;7.28;6.45;;;;;;;21.12;30.81;101994.06;5010788;28;20046;-79
2022/03/25 04:50:38;;;;;;;6.82;6.00;;;;;;;21.12;30.70;101996.75;5010805;28;20049;-79
2022/03/25 04:53:06;;;;;;;7.35;6.13;;;;;;;21.12;30.91;101995.91;5010954;28;20042;-79
2022/03/25 04:55:35;;;;;;;6.35;5.75;;;;;;;21.11;30.82;101995.03;5010343;28;20042;-79
2022/03/25 04:58:02;;;;;;;6.18;5.55;;;;;;;21.11;30.59;101994.19;4994405;28;20512;-79
2022/03/25 05:00:30;;;;;;;7.13;6.00;;;;;;;21.11;30.50;101992.34;5014268;28;20060;-78
2022/03/25 05:02:58;;;;;;;6.43;5.80;;;;;;;21.11;30.71;101999.56;5014181;28;20050;-79
2022/03/25 05:05:25;;;;;;;7.35;5.63;;;;;;;21.10;30.79;101998.69;5014198;28;20046;-78
2022/03/25 05:07:53;;;;;;;7.18;5.93;;;;;;;21.10;30.72;102001.38;5014077;28;20373;-78
2022/03/25 05:10:20;;;;;;;7.93;5.60;;;;;;;21.09;30.76;102013.13;5013563;28;20046;-78
2022/03/25 05:12:48;;;;;;;6.68;5.78;;;;;;;21.10;30.67;102008.59;4996679;28;20131;-78
2022/03/25 05:15:15;;;;;;;7.68;6.30;;;;;;;21.10;30.52;102013.97;5013181;28;20046;-80
2022/03/25 05:17:48;;;;;;;8.27;6.20;;;;;;;21.09;30.68;102012.28;5013375;28;20050;-79
2022/03/25 05:20:17;;;;;;;7.55;5.82;;;;;;;21.09;30.65;102009.56;5028951;28;20382;-79
2022/03/25 05:22:46;;;;;;;6.85;5.50;;;;;;;21.08;30.50;102006.03;5013628;28;20046;-79
2022/03/25 05:25:14;;;;;;;8.10;5.95;;;;;;;21.09;30.62;102014.97;5013152;28;20046;-80
2022/03/25 05:27:53;;;;;;;8.63;5.95;;;;;;;21.08;30.52;102005.19;5013569;28;20049;-80
2022/03/25 05:30:26;;;;;;;8.02;5.82;;;;;;;21.07;30.63;102015.09;5014451;28;20049;-80
2022/03/25 05:32:56;;;;;;;7.55;6.18;;;;;;;21.07;30.69;102014.22;5013909;28;20496;-80
2022/03/25 05:35:26;;;;;;;8.25;5.78;;;;;;;21.07;30.58;102023.16;5013755;28;20049;-80
2022/03/25 05:37:54;;;;;;;6.28;5.65;;;;;;;21.07;30.68;102023.16;5013065;28;20053;-79
2022/03/25 05:40:23;;;;;;;7.53;5.90;;;;;;;21.07;30.66;102025.00;5013318;28;20428;-79
2022/03/25 05:42:50;;;;;;;6.50;5.45;;;;;;;21.06;30.64;102023.25;5013145;28;20057;-78
2022/03/25 05:45:22;;;;;;;7.32;5.38;;;;;;;21.06;30.50;102029.50;5013134;28;20590;-80
2022/03/25 05:47:52;;;;;;;7.78;5.57;;;;;;;21.05;30.58;102035.88;4995946;28;20058;-80
2022/03/25 05:50:20;;;;;;;6.70;5.13;;;;;;;21.06;30.43;102037.56;5013351;28;20171;-80
2022/03/25 05:52:47;;;;;;;8.20;5.43;;;;;;;21.05;30.43;102035.88;5013159;28;20075;-80
2022/03/25 05:55:16;;;;;;;8.95;5.80;;;;;;;21.04;30.44;102038.69;5012609;28;20460;-79
2022/03/25 05:57:45;;;;;;;7.15;5.50;;;;;;;21.04;30.33;102044.94;5028807;28;20384;-79
2022/03/25 06:00:14;;;;;;;9.65;5.65;;;;;;;21.04;30.39;102039.53;5013636;28;20077;-79
2022/03/25 06:02:45;;;;;;;9.77;5.63;;;;;;;21.04;30.58;102036.00;5012508;28;20045;-78
2022/03/25 06:05:13;;;;;;;7.63;6.10;;;;;;;21.05;30.45;102046.63;5013425;28;20050;-79
2022/03/25 06:07:45;;;;;;;7.88;6.18;;;;;;;21.04;30.31;102042.22;5013324;28;20034;-78
2022/03/25 06:10:14;;;;;;;7.97;5.63;;;;;;;21.04;30.37;102044.06;5012722;28;20046;-79
2022/03/25 06:12:42;;;;;;;8.13;5.65;;;;;;;21.04;30.45;102047.63;5013468;28;20049;-78
2022/03/25 06:15:09;;;;;;;9.60;6.25;;;;;;;21.04;30.37;102047.63;5013078;28;20397;-78
2022/03/25 06:17:58;;;;;;;10.40;6.15;;;;;;;21.04;30.28;102047.63;5012486;28;20045;-80
2022/03/25 06:20:27;;;;;;;8.00;5.60;;;;;;;21.04;30.47;102046.75;5013446;28;20053;-79
2022/03/25 06:22:56;;;;;;;6.82;5.63;;;;;;;21.04;30.31;102047.63;5011473;28;20054;-79
2022/03/25 06:25:24;;;;;;;8.95;5.68;;;;;;;21.04;30.44;102052.16;4995803;28;20053;-79
2022/03/25 06:27:58;;;;;;;7.78;5.50;;;;;;;21.04;30.38;102044.94;5012810;28;20045;-78
2022/03/25 06:30:34;;;;;;;8.43;4.85;;;;;;;21.04;30.40;102053.00;4995614;28;20050;-78
2022/03/25 06:33:04;;;;;;;5.30;4.80;;;;;;;21.04;30.41;102055.69;5027880;28;20050;-78
2022/03/25 06:35:32;;;;;;;7.25;5.28;;;;;;;21.03;30.31;102059.38;5012149;28;20045;-78
2022/03/25 06:38:04;;;;;;;7.10;5.20;;;;;;;21.03;30.41;102066.59;5012048;28;20046;-78
2022/03/25 06:40:32;;;;;;;6.97;5.50;;;;;;;21.03;30.27;102064.75;5011888;28;20053;-78
2022/03/25 06:43:00;;;;;;;8.48;5.32;;;;;;;21.04;30.37;102054.84;5011916;28;20046;-78
2022/03/25 06:45:28;;;;;;;6.47;5.13;;;;;;;21.03;30.38;102056.69;5011962;28;20053;-78
2022/03/25 06:47:55;;;;;;;7.65;5.28;;;;;;;21.04;30.41;102060.22;5027283;28;20045;-78
2022/03/25 06:50:24;;;;;;;8.10;5.90;;;;;;;21.04;30.37;102054.84;5012338;28;20493;-78
2022/03/25 06:52:52;;;;;;;5.43;4.90;;;;;;;21.04;30.38;102065.59;4995005;28;20042;-78
2022/03/25 06:55:20;;;;;;;5.20;4.70;;;;;;;21.03;30.25;102059.38;5012161;28;20057;-78
2022/03/25 06:57:49;;;;;;;7.35;5.35;;;;;;;21.04;30.35;102057.53;5012042;28;20046;-78
2022/03/25 07:00:19;;;;;;;7.72;4.55;;;;;;;21.03;30.44;102064.75;5011903;28;20058;-78
2022/03/25 07:02:47;;;;;;;6.93;5.35;;;;;;;21.03;30.25;102056.69;5012427;28;20473;-79
2022/03/25 07:05:15;;;;;;;7.40;4.97;;;;;;;21.04;30.34;102065.59;4995053;28;20041;-79
2022/03/25 07:07:44;;;;;;;6.00;5.03;;;;;;;21.04;30.40;102058.38;5012313;28;20053;-79
2022/03/25 07:10:14;;;;;;;6.95;5.05;;;;;;;21.05;30.44;102064.63;5012944;28;20042;-79
2022/03/25 07:12:44;;;;;;;8.60;5.22;;;;;;;21.04;30.38;102069.16;5013051;28;20117;-80
2022/03/25 07:15:12;;;;;;;7.93;5.00;;;;;;;21.03;30.51;102067.44;5012416;28;20050;-80
2022/03/25 07:17:43;;;;;;;4.85;4.35;;;;;;;21.05;30.44;102067.31;5011244;28;20037;-80
2022/03/25 07:20:13;;;;;;;6.20;4.88;;;;;;;21.04;30.66;102071.84;5011794;28;20049;-79
2022/03/25 07:22:42;;;;;;;6.00;4.97;;;;;;;21.04;30.55;102071.84;5011287;28;20046;-80
2022/03/25 07:25:11;;;;;;;5.78;4.65;;;;;;;21.05;30.67;102078.94;5013415;28;20478;-79
2022/03/25 07:27:39;;;;;;;6.45;5.07;;;;;;;21.04;30.85;102069.16;5012710;28;20038;-80
2022/03/25 07:30:08;;;;;;;6.68;4.53;;;;;;;21.05;30.95;102073.56;5011747;28;20393;-80
2022/03/25 07:32:35;;;;;;;6.78;4.72;;;;;;;21.05;30.67;102070.88;4994306;28;20050;-79
2022/03/25 07:35:03;;;;;;;5.07;4.25;;;;;;;21.06;30.62;102069.88;5011766;28;20415;-80
2022/03/25 07:37:30;;;;;;;5.63;4.95;;;;;;;21.06;30.75;102071.72;5011770;28;20042;-81
2022/03/25 07:39:58;;;;;;;5.90;4.47;;;;;;;21.07;30.66;102073.47;5027837;28;20068;-80
2022/03/25 07:42:25;;;;;;;6.25;4.90;;;;;;;21.08;30.88;102080.56;5016396;28;20037;-80
2022/03/25 07:44:52;;;;;;;7.20;4.57;;;;;;;21.09;31.33;102076.91;5031005;28;20048;-81
2022/03/25 07:47:20;;;;;;;5.43;3.92;;;;;;;21.09;31.32;102080.44;5032114;28;20041;-81
2022/03/25 07:49:47;;;;;;;7.53;3.85;;;;;;;21.10;30.96;102073.22;5030767;28;20042;-80
2022/03/25 07:52:16;;;;;;;5.55;4.13;;;;;;;21.13;31.26;102075.69;5072779;28;20050;-76
2022/03/25 07:54:43;;;;;;;5.13;4.22;;;;;;;21.13;31.37;102079.25;5134173;27;20110;-80
2022/03/25 07:57:11;;;;;;;7.30;4.45;;;;;;;21.15;31.55;102071.06;5134087;27;20043;-77
2022/03/25 07:59:38;;;;;;;5.13;4.57;;;;;;;21.16;31.09;102079.03;5134103;27;20050;-77
2022/03/25 08:02:06;;;;;;;5.47;4.35;;;;;;;21.17;31.30;102069.97;5115762;28;20411;-79
2022/03/25 08:04:33;;;;;;;7.22;4.65;;;;;;;21.19;31.23;102083.34;5134674;28;20404;-83
2022/03/25 08:07:01;;;;;;;7.25;4.78;;;;;;;21.23;32.58;102083.00;5136016;28;20398;-82
2022/03/25 08:09:28;;;;;;;6.28;4.45;;;;;;;21.24;31.40;102087.38;5136310;28;20050;-81
2022/03/25 08:11:55;;;;;;;7.25;4.00;;;;;;;21.26;31.33;102086.41;5136138;28;20042;-81
2022/03/25 08:14:23;;;;;;;6.57;4.75;;;;;;;21.28;32.21;102090.72;5134020;28;20039;-78
2022/03/25 08:16:50;;;;;;;5.22;4.15;;;;;;;21.29;31.67;102094.28;5030947;28;20404;-82
2022/03/25 08:19:18;;;;;;;9.93;5.05;;;;;;;21.30;32.00;102086.06;5012660;28;20064;-78
2022/03/25 08:21:45;;;;;;;7.13;4.57;;;;;;;21.31;31.45;102086.91;5012215;28;20045;-79
2022/03/25 08:29:45;;;;;;;8.80;4.70;;;;;;;21.34;32.34;102089.41;5013435;28;20065;-84
2022/03/25 08:32:13;;;;;;;6.30;4.50;;;;;;;;;;5031654;28;20046;-86
2022/03/25 08:34:40;;;;;;;9.10;4.40;;;;;;;21.37;32.20;102087.38;5032921;28;20761;-81
2022/03/25 08:37:08;;;;;;;6.63;5.07;;;;;;;21.38;32.20;102093.59;5033533;28;20481;-80
2022/03/25 08:39:35;;;;;;;6.97;4.95;;;;;;;21.39;31.58;102090.81;5033342;28;20507;-77
2022/03/25 08:42:03;;;;;;;8.65;5.88;;;;;;;21.41;31.34;102093.38;5033353;28;20046;-80
2022/03/25 08:44:30;;;;;;;10.27;5.43;;;;;;;21.40;31.01;102086.28;5035117;28;20049;-77
2022/03/25 08:46:57;;;;;;;7.35;5.30;;;;;;;21.40;30.57;102087.16;5034670;28;20045;-80
2022/03/25 08:49:25;;;;;;;6.75;5.28;;;;;;;21.41;30.91;102082.59;5016613;28;20071;-77
2022/03/25 08:51:52;;;;;;;7.95;5.60;;;;;;;21.42;31.08;102078.94;5034472;28;20052;-76
2022/03/25 08:54:21;;;;;;;7.60;5.47;;;;;;;21.42;31.43;102078.94;5034450;28;20045;-80
2022/03/25 08:56:49;;;;;;;7.03;5.22;;;;;;;21.43;31.13;102077.94;5016611;28;20053;-85
2022/03/25 08:59:17;;;;;;;7.03;5.50;;;;;;;21.43;31.35;102075.25;5034997;28;20374;-79
2022/03/25 09:01:45;;;;;;;7.57;5.65;;;;;;;21.44;31.11;102082.38;5034063;28;20049;-79
2022/03/25 09:04:12;;;;;;;7.07;5.60;;;;;;;21.44;30.84;102077.84;5034376;28;20072;-82
2022/03/25 09:06:40;;;;;;;7.05;6.25;;;;;;;21.45;31.00;102076.88;5034781;28;20053;-78
2022/03/25 09:09:07;;;;;;;9.10;6.40;;;;;;;21.45;30.42;102078.72;5033873;28;20061;-78
2022/03/25 09:11:35;;;;;;;8.30;6.10;;;;;;;21.46;30.50;102083.13;5015661;28;20053;-83
2022/03/25 09:14:02;;;;;;;7.32;6.05;;;;;;;21.46;30.39;102075.03;5016474;28;20416;-84
2022/03/25 09:16:30;;;;;;;7.00;6.05;;;;;;;21.47;30.60;102082.13;5017480;28;20049;-77
2022/03/25 09:18:58;;;;;;;8.20;6.32;;;;;;;21.47;30.52;102076.75;5034141;28;20057;-79
2022/03/25 09:21:25;;;;;;;8.30;5.68;;;;;;;21.48;31.07;102076.66;5034207;28;20038;-85
2022/03/25 09:23:53;;;;;;;8.98;5.65;;;;;;;21.49;30.60;102074.81;5032981;28;20052;-83
2022/03/25 09:26:20;;;;;;;8.00;5.45;;;;;;;21.50;30.46;102081.06;5034182;28;20048;-78
2022/03/25 09:28:47;;;;;;;7.15;6.10;;;;;;;21.51;30.30;102083.63;5034249;28;20041;-80
2022/03/25 09:31:15;;;;;;;7.25;5.88;;;;;;;21.49;29.48;102074.81;5016357;28;20049;-82
2022/03/25 09:36:48;;;;;;;10.32;6.53;;;;;;;21.46;29.50;102083.13;5032710;28;20046;-82
2022/03/25 09:39:16;;;;;;;8.73;5.47;;;;;;;21.46;29.51;102077.72;5033034;28;20495;-79
2022/03/25 09:41:45;;;;;;;10.32;7.38;;;;;;;21.46;28.40;102080.41;5033212;28;20049;-81
2022/03/25 09:44:16;;;;;;;10.30;7.57;;;;;;;21.46;28.82;102075.03;5033267;28;20049;-79
2022/03/25 09:46:44;;;;;;;8.02;6.60;;;;;;;21.46;29.53;102073.19;5015396;28;20373;-80
2022/03/25 09:49:12;;;;;;;6.32;5.72;;;;;;;21.48;29.35;102070.41;5032850;28;20041;-84
2022/03/25 09:51:41;;;;;;;8.85;7.10;;;;;;;21.47;29.18;102065.97;5032158;28;20042;-78
2022/03/25 09:54:11;;;;;;;10.70;7.18;;;;;;;21.48;29.23;102071.25;5032763;28;20049;-77
2022/03/25 09:56:40;;;;;;;9.20;6.85;;;;;;;21.48;29.54;102068.56;5031852;28;20064;-77
2022/03/25 09:59:07;;;;;;;10.30;6.97;;;;;;;21.49;29.69;102069.41;5033110;28;20496;-77
2022/03/25 10:01:35;;;;;;;8.65;6.63;;;;;;;21.50;29.59;102060.34;5032577;28;20053;-77
2022/03/25 10:04:04;;;;;;;8.95;7.05;;;;;;;21.49;29.75;102061.34;5033041;28;20056;-80
2022/03/25 10:06:45;;;;;;;8.40;7.28;;;;;;;21.50;29.70;102068.44;5034174;28;20045;-79
2022/03/25 10:09:21;;;;;;;10.35;8.50;;;;;;;21.51;29.83;102056.69;5033307;28;20069;-79
2022/03/25 10:11:48;;;;;;;11.27;8.18;;;;;;;21.53;30.01;102059.28;5033364;28;20049;-78
2022/03/25 10:14:23;;;;;;;8.15;7.22;;;;;;;21.53;30.17;102048.50;5014938;28;20519;-77
2022/03/25 10:16:52;;;;;;;8.05;7.13;;;;;;;21.54;30.05;102055.59;5032905;28;20052;-81
2022/03/25 10:19:23;;;;;;;8.75;7.50;;;;;;;21.55;29.87;102060.84;5033146;28;20042;-79
2022/03/25 10:21:54;;;;;;;9.02;8.13;;;;;;;21.55;29.77;102051.91;5031932;28;20042;-82
2022/03/25 10:24:38;;;;;;;8.18;7.18;;;;;;;21.54;30.75;102045.66;5032082;28;20053;-78
2022/03/25 10:27:17;;;;;;;10.10;7.40;;;;;;;21.56;30.03;102042.88;5031783;28;20075;-79
2022/03/25 10:29:46;;;;;;;10.40;7.57;;;;;;;21.56;29.95;102049.13;5031868;28;20404;-82
2022/03/25 10:32:16;;;;;;;11.70;7.63;;;;;;;21.56;30.28;102041.03;5013021;28;20409;-83
2022/03/25 10:34:43;;;;;;;8.10;6.90;;;;;;;21.56;30.08;102038.34;5032046;28;20076;-77
2022/03/25 10:37:14;;;;;;;11.30;7.65;;;;;;;21.57;30.13;102040.06;5031471;28;20049;-78
2022/03/25 10:39:52;;;;;;;9.23;7.13;;;;;;;21.57;29.74;102045.44;5031600;28;20052;-77
2022/03/25 10:42:20;;;;;;;8.40;7.28;;;;;;;21.57;29.83;102044.59;5031768;28;20042;-77
2022/03/25 10:44:47;;;;;;;8.93;7.60;;;;;;;21.56;29.86;102032.97;5031279;28;20049;-77
2022/03/25 10:47:17;;;;;;;12.05;7.57;;;;;;;21.57;29.75;102040.06;5032788;27;20053;-78
2022/03/25 10:49:47;;;;;;;8.38;7.45;;;;;;;21.57;29.67;102025.72;5036165;27;20157;-77
2022/03/25 10:52:30;;;;;;;7.93;7.07;;;;;;;21.58;29.85;102031.00;5032451;28;20050;-78
2022/03/25 10:55:22;;;;;;;8.95;7.80;;;;;;;21.60;29.74;102028.19;5032707;28;20049;-77
2022/03/25 10:57:58;;;;;;;8.90;7.53;;;;;;;21.60;29.72;102017.41;5032308;28;20046;-76
2022/03/25 11:00:26;;;;;;;7.55;6.50;;;;;;;21.61;29.73;102022.69;5032189;28;20057;-81
2022/03/25 11:02:54;;;;;;;11.02;8.00;;;;;;;21.61;29.96;102024.50;5013926;28;20049;-78
2022/03/25 11:05:22;;;;;;;7.82;6.97;;;;;;;21.61;30.02;102013.75;5014244;28;20056;-78
2022/03/25 11:07:51;;;;;;;7.38;6.68;;;;;;;21.60;29.65;102015.56;5033239;28;20053;-78
2022/03/25 11:10:19;;;;;;;7.47;6.72;;;;;;;21.60;29.63;102018.28;5001504;28;20053;-77
2022/03/25 11:12:53;;;;;;;8.25;7.05;;;;;;;21.60;29.34;102012.03;5032062;28;20053;-77
2022/03/25 11:15:21;;;;;;;8.10;6.72;;;;;;;21.61;29.48;102006.50;4997264;28;20057;-79
2022/03/25 11:17:48;;;;;;;8.80;7.90;;;;;;;21.60;29.49;102007.50;5013177;28;20493;-81
2022/03/25 11:20:19;;;;;;;9.10;7.25;;;;;;;21.60;29.28;102004.78;5013455;28;20045;-76
2022/03/25 11:23:05;;;;;;;9.05;6.85;;;;;;;21.63;29.60;102001.00;5031090;28;20053;-79
2022/03/25 11:25:38;;;;;;;9.00;7.53;;;;;;;21.62;29.51;101993.88;5030789;28;20077;-78
2022/03/25 11:28:32;;;;;;;10.80;8.48;;;;;;;21.61;28.84;101989.47;5013600;28;20049;-79
2022/03/25 11:31:04;;;;;;;10.15;7.97;;;;;;;21.61;28.89;101990.34;5017403;28;20050;-78
2022/03/25 11:33:32;;;;;;;9.05;7.88;;;;;;;21.61;29.28;101987.66;5030574;28;20060;-77
2022/03/25 11:36:19;;;;;;;9.43;7.13;;;;;;;21.62;29.07;101981.28;5030450;28;20045;-78
2022/03/25 11:38:46;;;;;;;8.70;7.22;;;;;;;21.62;29.53;101983.09;5030469;28;20049;-78
2022/03/25 11:41:27;;;;;;;8.57;7.13;;;;;;;21.62;29.36;101978.56;5030400;28;20413;-77